Time;durP1;ratioP1;P1;durP2;ratioP2;P2;SDS_P1;SDS_P2;PMS_P1;PMS_P2;Temp;Humidity;BMP_temperature;BMP_pressure;BME280_temperature;BME280_humidity;BME280_pressure;Samples;Min_cycle;Max_cycle;Signal;HPM_P1;HPM_P2
2022/05/07 00:02:00;;;;;;;6.93;3.10;;;;;;;14.72;100.00;102125.97;10096915;28;20130;-65
2022/05/07 00:06:57;;;;;;;7.82;3.45;;;;;;;14.69;100.00;102134.81;10082031;28;20050;-65
2022/05/07 00:11:54;;;;;;;5.30;3.03;;;;;;;14.75;100.00;102122.56;10091520;28;20085;-64
2022/05/07 00:22:05;;;;;;;5.80;3.20;;;;;;;14.74;100.00;102118.22;10073761;28;20137;-64
2022/05/07 00:27:02;;;;;;;5.88;3.25;;;;;;;14.67;100.00;102118.63;10078269;28;20071;-65
2022/05/07 00:31:58;;;;;;;6.50;3.47;;;;;;;14.55;100.00;102115.63;10070711;28;20051;-65
2022/05/07 00:36:55;;;;;;;5.47;3.08;;;;;;;14.45;100.00;102119.38;10076157;28;20132;-65
2022/05/07 00:41:52;;;;;;;6.25;3.65;;;;;;;14.41;100.00;102117.56;10079621;28;20133;-65
2022/05/07 00:46:49;;;;;;;6.70;4.05;;;;;;;14.35;100.00;102122.38;10082285;28;20642;-65
2022/05/07 00:51:46;;;;;;;7.30;3.65;;;;;;;14.37;100.00;102120.13;10079588;28;20067;-64
2022/05/07 00:56:42;;;;;;;8.80;4.25;;;;;;;14.32;100.00;102117.50;10083053;28;20063;-65
2022/05/07 01:01:40;;;;;;;8.50;4.43;;;;;;;14.24;100.00;102118.22;10086583;28;20082;-65
2022/05/07 01:06:38;;;;;;;10.00;4.35;;;;;;;14.17;100.00;102106.81;10101794;28;20158;-65
2022/05/07 01:11:35;;;;;;;5.93;4.07;;;;;;;14.07;100.00;102116.09;10102796;28;20141;-64
2022/05/07 01:16:31;;;;;;;11.40;5.40;;;;;;;14.00;100.00;102116.50;10098184;28;20113;-65
2022/05/07 01:21:28;;;;;;;8.65;4.70;;;;;;;13.93;100.00;102110.63;10101241;28;20138;-65
2022/05/07 01:26:26;;;;;;;9.18;4.45;;;;;;;13.87;100.00;102117.31;10103288;28;20141;-64
2022/05/07 01:31:25;;;;;;;9.02;4.85;;;;;;;13.81;100.00;102115.81;10112374;28;20082;-63
2022/05/07 01:36:22;;;;;;;6.95;4.97;;;;;;;13.74;100.00;102107.13;10092951;28;20042;-65
2022/05/07 01:41:18;;;;;;;8.05;4.78;;;;;;;13.65;100.00;102109.81;10106517;28;20528;-65
2022/05/07 01:51:30;;;;;;;9.93;6.10;;;;;;;13.48;100.00;102104.88;10090741;28;20598;-65
2022/05/07 01:56:26;;;;;;;9.48;5.63;;;;;;;13.40;100.00;102108.34;10110518;28;20062;-65
2022/05/07 02:01:23;;;;;;;11.23;5.95;;;;;;;13.33;100.00;102113.44;10104526;28;20043;-65
2022/05/07 02:06:19;;;;;;;12.00;7.43;;;;;;;13.35;100.00;102111.19;10103096;28;20543;-65
2022/05/07 02:11:16;;;;;;;13.23;8.15;;;;;;;13.32;100.00;102117.28;10110154;28;20507;-66
2022/05/07 02:16:12;;;;;;;10.32;6.38;;;;;;;13.37;100.00;102103.47;10087538;28;20035;-65
2022/05/07 02:21:09;;;;;;;9.32;6.13;;;;;;;13.40;100.00;102114.66;10105197;28;20586;-65
2022/05/07 02:26:05;;;;;;;12.35;6.85;;;;;;;13.38;100.00;102100.41;10098202;28;20082;-62
2022/05/07 02:31:02;;;;;;;11.35;6.43;;;;;;;13.38;100.00;102099.59;10110350;28;20046;-63
2022/05/07 02:35:58;;;;;;;11.77;7.80;;;;;;;13.29;100.00;102101.41;10087243;28;20778;-64
2022/05/07 02:46:10;;;;;;;11.07;8.55;;;;;;;13.21;100.00;102106.47;10099850;28;20145;-63
2022/05/07 02:51:07;;;;;;;14.35;9.70;;;;;;;13.29;100.00;102104.16;10089737;28;20081;-63
2022/05/07 02:56:04;;;;;;;18.02;11.05;;;;;;;13.21;100.00;102106.47;10104636;28;20134;-65
2022/05/07 03:01:01;;;;;;;17.02;10.73;;;;;;;13.34;100.00;102110.34;10094482;28;20680;-63
2022/05/07 03:05:59;;;;;;;20.45;11.65;;;;;;;13.26;100.00;102103.59;10103395;28;20121;-63
2022/05/07 03:10:56;;;;;;;19.70;15.05;;;;;;;13.25;100.00;102102.00;10108381;28;20110;-65
2022/05/07 03:15:53;;;;;;;22.45;15.55;;;;;;;13.20;100.00;102110.28;10098163;28;20735;-63
2022/05/07 03:20:50;;;;;;;25.27;18.50;;;;;;;13.13;100.00;102115.38;10107031;28;20059;-64
2022/05/07 03:25:46;;;;;;;27.05;17.55;;;;;;;13.11;100.00;102112.13;10094792;28;20078;-64
2022/05/07 03:30:43;;;;;;;29.83;18.08;;;;;;;13.09;100.00;102114.38;10107939;28;20046;-64
2022/05/07 03:35:40;;;;;;;28.48;20.02;;;;;;;12.96;100.00;102120.63;10103741;28;20050;-64
2022/05/07 03:40:37;;;;;;;27.48;19.30;;;;;;;12.87;100.00;102111.44;10086381;28;20476;-64
2022/05/07 03:45:33;;;;;;;29.20;19.90;;;;;;;12.89;100.00;102098.22;10106512;28;20090;-64
2022/05/07 03:50:30;;;;;;;25.95;19.38;;;;;;;12.90;100.00;102099.84;10113764;28;20506;-64
2022/05/07 03:55:26;;;;;;;27.00;18.60;;;;;;;12.90;100.00;102105.34;10080947;28;20043;-64
2022/05/07 04:00:23;;;;;;;24.17;18.42;;;;;;;12.87;100.00;102105.94;10083334;28;20135;-64
2022/05/07 04:05:19;;;;;;;30.25;20.73;;;;;;;12.82;100.00;102104.91;10090428;28;20055;-64
2022/05/07 04:10:16;;;;;;;31.55;20.90;;;;;;;12.80;100.00;102100.84;10095951;28;20050;-64
2022/05/07 04:15:16;;;;;;;28.20;19.73;;;;;;;12.73;100.00;102105.88;10085035;28;20047;-65
2022/05/07 04:20:17;;;;;;;29.88;20.35;;;;;;;12.72;100.00;102104.28;10104118;28;20577;-63
2022/05/07 04:25:13;;;;;;;28.65;19.17;;;;;;;12.70;100.00;102107.31;10090697;28;20106;-63
2022/05/07 04:30:10;;;;;;;27.23;19.42;;;;;;;12.67;100.00;102113.41;10074954;28;20558;-64
2022/05/07 04:35:07;;;;;;;24.85;18.60;;;;;;;12.65;100.00;102118.38;10093848;28;20075;-64
2022/05/07 04:40:04;;;;;;;28.35;18.27;;;;;;;12.68;100.00;102123.25;10100340;28;20518;-64
2022/05/07 04:45:07;;;;;;;26.52;19.52;;;;;;;12.71;100.00;102114.41;10109927;28;20058;-64
2022/05/07 04:50:04;;;;;;;31.42;20.08;;;;;;;12.69;100.00;102119.38;10092738;28;20090;-65
2022/05/07 04:55:02;;;;;;;24.55;18.15;;;;;;;12.77;100.00;102113.22;10082112;28;20055;-65
2022/05/07 04:59:59;;;;;;;27.33;19.67;;;;;;;12.79;100.00;102126.66;10105600;28;20062;-64
2022/05/07 05:04:56;;;;;;;29.85;20.95;;;;;;;12.90;100.00;102124.56;10105135;28;20133;-65
2022/05/07 05:09:53;;;;;;;33.65;22.40;;;;;;;13.06;100.00;102131.41;10101703;28;20812;-65
2022/05/07 05:15:02;;;;;;;30.73;21.52;;;;;;;13.22;100.00;102135.53;10106208;28;20051;-65
2022/05/07 05:19:59;;;;;;;28.90;21.35;;;;;;;13.30;100.00;102125.00;10113167;28;20090;-65
2022/05/07 05:24:57;;;;;;;34.08;22.80;;;;;;;13.42;100.00;102128.09;10102563;28;20053;-65
2022/05/07 05:29:54;;;;;;;34.92;23.35;;;;;;;13.55;100.00;102130.03;10112605;28;20141;-64
2022/05/07 05:34:53;;;;;;;35.17;24.02;;;;;;;13.67;100.00;102144.09;10104972;28;20063;-64
2022/05/07 05:39:50;;;;;;;30.45;22.45;;;;;;;13.67;100.00;102146.06;10109759;28;20121;-63
2022/05/07 05:44:46;;;;;;;38.40;22.67;;;;;;;13.74;100.00;102151.13;10103875;28;20170;-63
2022/05/07 05:49:43;;;;;;;37.25;25.15;;;;;;;13.76;100.00;102157.13;10100604;28;20079;-63
2022/05/07 05:54:40;;;;;;;28.48;20.90;;;;;;;13.75;100.00;102163.75;10085552;28;20073;-65
2022/05/07 05:59:43;;;;;;;32.20;22.40;;;;;;;13.75;100.00;102158.25;10076338;28;20063;-65
2022/05/07 06:04:39;;;;;;;35.08;22.23;;;;;;;13.75;100.00;102158.25;10073481;28;20078;-65
2022/05/07 06:09:36;;;;;;;29.80;20.13;;;;;;;13.81;100.00;102173.56;10089402;28;20105;-65
2022/05/07 06:14:32;;;;;;;26.67;17.98;;;;;;;13.85;100.00;102169.06;10113826;28;20122;-65
2022/05/07 06:19:30;;;;;;;26.67;17.92;;;;;;;13.96;100.00;102175.19;10101044;28;20117;-64
2022/05/07 06:29:42;;;;;;;22.88;15.18;;;;;;;14.16;100.00;102179.47;10108196;28;20055;-63
2022/05/07 06:34:38;;;;;;;24.38;14.00;;;;;;;14.21;100.00;102176.59;10104280;28;20051;-64
2022/05/07 06:39:35;;;;;;;21.52;13.43;;;;;;;14.36;100.00;102173.50;10101704;28;20149;-64
2022/05/07 06:44:31;;;;;;;18.50;12.07;;;;;;;14.47;100.00;102169.41;10104687;28;20078;-64
2022/05/07 06:49:28;;;;;;;18.95;11.60;;;;;;;14.56;100.00;102177.78;10100936;28;20528;-64
2022/05/07 06:54:24;;;;;;;16.17;11.70;;;;;;;14.63;100.00;102171.88;10091649;28;20073;-64
2022/05/07 06:59:21;;;;;;;20.15;12.20;;;;;;;14.70;100.00;102177.75;10086392;28;20138;-64
2022/05/07 07:04:17;;;;;;;18.13;10.90;;;;;;;14.69;100.00;102187.13;10098992;28;20082;-64
2022/05/07 07:09:13;;;;;;;14.55;9.85;;;;;;;14.70;100.00;102180.50;10096810;28;20085;-64
2022/05/07 07:14:10;;;;;;;15.07;10.10;;;;;;;14.76;100.00;102198.56;10108717;28;20086;-64
2022/05/07 07:19:24;;;;;;;15.05;9.10;;;;;;;14.87;100.00;102193.59;10104272;28;20042;-64
2022/05/07 07:24:38;;;;;;;16.25;9.93;;;;;;;14.84;100.00;102199.75;10094439;28;20566;-64
2022/05/07 07:29:35;;;;;;;14.10;8.50;;;;;;;15.06;100.00;102204.44;10098099;28;20522;-64
2022/05/07 07:34:49;;;;;;;16.20;7.68;;;;;;;15.05;100.00;102205.59;10098159;28;20121;-64
2022/05/07 07:40:04;;;;;;;10.20;5.50;;;;;;;15.07;100.00;102214.34;10101792;28;20494;-64
2022/05/07 07:50:17;;;;;;;9.15;5.15;;;;;;;15.20;100.00;102219.00;10103940;28;20059;-64
2022/05/07 07:55:13;;;;;;;12.48;5.57;;;;;;;15.23;100.00;102218.38;10094413;28;20042;-64
2022/05/07 08:00:11;;;;;;;9.75;5.20;;;;;;;15.28;100.00;102215.47;10084188;28;20125;-63
2022/05/07 08:05:07;;;;;;;9.20;6.00;;;;;;;15.36;100.00;102223.00;10093045;28;20101;-65
2022/05/07 08:15:19;;;;;;;10.63;6.03;;;;;;;15.41;100.00;102224.00;10090073;28;20047;-64
2022/05/07 08:20:16;;;;;;;10.90;7.20;;;;;;;15.64;100.00;102216.50;10086790;28;20245;-64
2022/05/07 08:25:12;;;;;;;11.60;5.78;;;;;;;15.59;100.00;102217.47;10093214;28;20485;-64
2022/05/07 08:30:09;;;;;;;9.95;5.75;;;;;;;15.75;100.00;102224.22;10088077;28;20488;-64
2022/05/07 08:35:06;;;;;;;13.45;8.02;;;;;;;15.86;100.00;102226.72;10080286;28;20129;-64
2022/05/07 08:40:03;;;;;;;10.75;6.30;;;;;;;15.97;100.00;102230.84;10087274;28;20054;-65
2022/05/07 08:45:00;;;;;;;10.20;6.10;;;;;;;16.09;100.00;102233.81;10054513;28;21766;-66
2022/05/07 08:49:57;;;;;;;7.93;4.95;;;;;;;16.28;100.00;102232.75;10074499;28;20114;-65
2022/05/07 08:54:54;;;;;;;9.70;5.75;;;;;;;16.35;100.00;102231.13;10076014;28;20055;-67
2022/05/07 08:59:51;;;;;;;15.52;6.38;;;;;;;16.72;100.00;102233.66;10082657;28;20145;-67
2022/05/07 09:04:58;;;;;;;12.23;5.68;;;;;;;16.76;100.00;102229.94;10069674;28;20114;-64
2022/05/07 09:09:54;;;;;;;10.35;4.45;;;;;;;16.93;100.00;102226.38;10081536;28;20134;-64
2022/05/07 09:14:51;;;;;;;10.93;4.70;;;;;;;17.16;100.00;102220.69;10083913;28;20086;-66
2022/05/07 09:19:47;;;;;;;10.05;5.80;;;;;;;17.22;100.00;102220.22;10074548;28;20115;-66
2022/05/07 09:24:55;;;;;;;11.07;5.72;;;;;;;17.22;100.00;102219.41;10082928;28;20558;-66
2022/05/07 09:30:03;;;;;;;9.80;4.55;;;;;;;17.42;100.00;102229.75;10087242;28;20143;-67
2022/05/07 09:40:14;;;;;;;10.38;4.05;;;;;;;17.23;100.00;102232.06;10073344;28;20511;-66
2022/05/07 09:45:11;;;;;;;8.02;3.88;;;;;;;17.45;100.00;102234.66;10090663;28;20138;-65
2022/05/07 09:50:20;;;;;;;7.47;3.97;;;;;;;17.69;100.00;102225.00;10088837;28;20078;-66
2022/05/07 10:00:37;;;;;;;8.23;3.65;;;;;;;17.69;100.00;102238.81;10080493;28;20058;-66
2022/05/07 10:06:08;;;;;;;10.80;4.50;;;;;;;17.75;100.00;102236.69;10077928;28;20046;-66
2022/05/07 10:11:06;;;;;;;9.68;5.40;;;;;;;17.48;100.00;102233.19;10047941;28;20664;-66
2022/05/07 10:16:03;;;;;;;11.70;6.07;;;;;;;17.61;100.00;102240.44;10075611;28;20074;-66
2022/05/07 10:21:13;;;;;;;10.45;7.20;;;;;;;18.14;100.00;102238.38;10072822;28;20077;-68
2022/05/07 10:26:10;;;;;;;11.70;7.18;;;;;;;19.92;97.20;102235.16;10066858;28;20098;-66
2022/05/07 10:31:16;;;;;;;11.95;7.55;;;;;;;20.71;94.38;102229.38;10070440;28;20455;-65
2022/05/07 10:36:14;;;;;;;13.05;8.13;;;;;;;19.89;90.83;102222.00;10097415;28;20130;-66
2022/05/07 10:41:14;;;;;;;12.63;7.72;;;;;;;19.42;93.47;102219.53;10102438;28;20706;-66
2022/05/07 10:46:19;;;;;;;13.13;8.68;;;;;;;19.53;95.91;102215.16;10105462;28;20502;-66
2022/05/07 10:51:32;;;;;;;14.40;9.55;;;;;;;19.35;97.25;102219.28;10099571;28;20086;-66
2022/05/07 10:56:31;;;;;;;13.75;8.35;;;;;;;19.25;99.66;102214.16;10091397;28;20071;-67
2022/05/07 11:01:31;;;;;;;12.18;7.47;;;;;;;19.66;96.09;102212.44;10096949;28;20051;-66
2022/05/07 11:06:27;;;;;;;9.88;5.25;;;;;;;19.46;91.93;102214.13;10082663;28;20349;-67
2022/05/07 11:11:24;;;;;;;9.88;5.60;;;;;;;19.20;92.71;102215.19;10102485;28;20137;-67
2022/05/07 11:16:22;;;;;;;9.88;6.22;;;;;;;18.76;100.00;102208.34;10100361;28;20105;-66
2022/05/07 11:21:20;;;;;;;9.93;6.07;;;;;;;18.52;100.00;102215.38;10098006;28;20054;-67
2022/05/07 11:26:16;;;;;;;11.07;5.30;;;;;;;18.34;100.00;102222.16;10097235;28;20058;-66
2022/05/07 11:31:34;;;;;;;10.57;6.10;;;;;;;18.39;100.00;102227.50;10106024;28;20539;-67
2022/05/07 11:36:32;;;;;;;12.57;6.30;;;;;;;18.53;100.00;102221.72;10082506;28;20130;-66
2022/05/07 11:41:29;;;;;;;7.88;5.00;;;;;;;18.92;100.00;102221.28;10085574;28;20051;-67
2022/05/07 11:46:56;;;;;;;10.43;6.00;;;;;;;18.69;100.00;102215.25;10102973;28;20054;-67
2022/05/07 11:52:13;;;;;;;9.73;6.15;;;;;;;18.50;100.00;102223.19;10095470;28;20118;-67
2022/05/07 11:57:10;;;;;;;10.20;5.20;;;;;;;18.47;100.00;102213.59;10096368;28;20145;-67
2022/05/07 12:02:08;;;;;;;16.20;8.05;;;;;;;18.32;100.00;102232.75;10075446;28;20047;-67
2022/05/07 12:07:04;;;;;;;12.32;6.63;;;;;;;18.09;100.00;102224.72;10082455;28;20486;-67
2022/05/07 12:12:06;;;;;;;11.97;6.50;;;;;;;17.96;100.00;102220.19;10104872;28;20423;-67
2022/05/07 12:32:50;;;;;;;9.50;4.45;;;;;;;17.78;100.00;102223.03;10092667;28;20074;-67
2022/05/07 12:37:46;;;;;;;21.13;11.70;;;;;;;17.94;100.00;102222.50;10083223;28;20051;-67
2022/05/07 12:42:43;;;;;;;11.90;5.35;;;;;;;17.92;100.00;102224.81;10083253;28;20134;-66
2022/05/07 12:47:39;;;;;;;29.17;17.75;;;;;;;17.99;100.00;102225.09;10089857;28;20141;-67
2022/05/07 12:52:35;;;;;;;137.32;80.75;;;;;;;18.55;100.00;102220.22;10095129;28;20162;-66
2022/05/07 12:57:32;;;;;;;12.50;4.32;;;;;;;18.86;100.00;102219.06;10095746;28;20043;-66
2022/05/07 13:02:30;;;;;;;106.95;57.00;;;;;;;18.86;100.00;102221.81;10109463;28;20506;-66
2022/05/07 13:07:27;;;;;;;134.32;80.22;;;;;;;18.81;100.00;102216.50;10089994;28;20051;-66
2022/05/07 13:12:24;;;;;;;164.93;113.32;;;;;;;19.10;100.00;102213.66;10075875;28;20063;-66
2022/05/07 13:17:23;;;;;;;8.57;3.70;;;;;;;18.95;99.08;102222.56;10092641;28;20679;-66
2022/05/07 13:22:20;;;;;;;7.70;4.00;;;;;;;18.92;100.00;102217.72;10082006;28;20050;-66
2022/05/07 13:27:17;;;;;;;8.20;4.00;;;;;;;19.03;100.00;102223.63;10085027;28;20039;-63
2022/05/07 13:32:13;;;;;;;6.53;2.58;;;;;;;19.11;99.38;102226.34;10089936;28;20610;-64
2022/05/07 13:37:12;;;;;;;7.93;2.25;;;;;;;19.24;98.39;102229.16;10083257;28;20130;-65
2022/05/07 13:42:10;;;;;;;6.20;2.65;;;;;;;19.18;94.06;102236.09;10083692;28;20046;-65
2022/05/07 13:47:07;;;;;;;4.68;2.10;;;;;;;19.07;97.82;102225.41;10079557;28;20133;-64
2022/05/07 13:52:04;;;;;;;5.45;1.98;;;;;;;18.91;98.74;102232.69;10080918;28;20105;-65
2022/05/07 13:57:02;;;;;;;5.50;2.50;;;;;;;18.42;100.00;102227.63;10085562;28;21039;-70
2022/05/07 14:02:00;;;;;;;5.72;2.38;;;;;;;18.35;100.00;102232.06;10071324;28;20094;-67
2022/05/07 14:06:59;;;;;;;6.88;3.15;;;;;;;18.37;100.00;102238.09;10075784;28;20059;-65
2022/05/07 14:11:56;;;;;;;8.75;2.75;;;;;;;18.04;100.00;102228.47;10082309;28;20051;-67
2022/05/07 14:16:53;;;;;;;6.63;3.03;;;;;;;18.02;100.00;102243.78;10075678;28;20059;-66
2022/05/07 14:21:49;;;;;;;7.40;4.00;;;;;;;17.63;100.00;102238.19;10083048;28;20574;-66
2022/05/07 14:26:46;;;;;;;7.53;3.30;;;;;;;17.28;100.00;102225.56;10077056;28;20079;-66
2022/05/07 14:31:42;;;;;;;5.72;2.88;;;;;;;17.26;100.00;102225.88;10069816;28;20059;-66
2022/05/07 14:36:39;;;;;;;7.90;3.58;;;;;;;17.36;100.00;102233.84;10068897;28;20054;-66
2022/05/07 14:41:36;;;;;;;12.02;4.93;;;;;;;17.27;100.00;102233.06;10077469;28;20216;-66
2022/05/07 14:46:33;;;;;;;9.25;5.28;;;;;;;17.06;100.00;102218.25;10076310;28;20071;-66
2022/05/07 14:51:30;;;;;;;9.23;4.03;;;;;;;17.12;100.00;102226.06;10076973;28;20051;-66
2022/05/07 14:56:27;;;;;;;9.45;3.78;;;;;;;16.99;100.00;102224.28;10085334;28;20043;-67
2022/05/07 15:01:24;;;;;;;5.93;3.30;;;;;;;16.90;100.00;102229.81;10077837;28;20063;-64
2022/05/07 15:06:21;;;;;;;5.90;2.50;;;;;;;16.69;100.00;102228.78;10068979;28;20162;-67
2022/05/07 15:11:19;;;;;;;6.82;3.90;;;;;;;16.77;100.00;102230.72;10073235;28;20145;-67
2022/05/07 15:16:18;;;;;;;5.78;2.90;;;;;;;16.55;100.00;102238.00;10072972;28;20499;-67
2022/05/07 15:21:15;;;;;;;5.38;3.10;;;;;;;16.37;100.00;102239.91;10076159;28;20047;-67
2022/05/07 15:26:11;;;;;;;8.75;3.72;;;;;;;16.34;100.00;102235.03;10081540;28;20097;-67
2022/05/07 15:31:10;;;;;;;6.55;4.05;;;;;;;16.30;100.00;102227.72;10089572;28;20109;-67
2022/05/07 15:41:22;;;;;;;6.35;3.92;;;;;;;16.27;100.00;102233.84;10081634;28;20109;-68
2022/05/07 15:46:18;;;;;;;7.95;3.97;;;;;;;16.34;100.00;102231.47;10082672;28;20106;-68
2022/05/07 15:51:15;;;;;;;9.50;3.90;;;;;;;16.29;100.00;102237.13;10084870;28;20054;-68
2022/05/07 15:56:12;;;;;;;6.32;3.30;;;;;;;16.22;100.00;102232.06;10079492;28;20266;-68
2022/05/07 16:01:09;;;;;;;5.57;3.20;;;;;;;16.25;100.00;102231.44;10080956;28;20069;-64
2022/05/07 16:06:05;;;;;;;6.32;3.08;;;;;;;16.31;100.00;102223.81;10090399;28;20059;-64
2022/05/07 16:11:02;;;;;;;5.90;2.53;;;;;;;16.24;100.00;102226.22;10103218;28;20113;-64
2022/05/07 16:15:58;;;;;;;4.78;2.33;;;;;;;16.25;100.00;102222.34;10088821;28;20047;-64
2022/05/07 16:20:55;;;;;;;5.30;2.75;;;;;;;16.18;100.00;102231.91;10103187;28;20042;-64
2022/05/07 16:26:02;;;;;;;5.45;2.10;;;;;;;16.22;100.00;102223.78;10085118;28;20062;-64
2022/05/07 16:30:59;;;;;;;9.07;2.03;;;;;;;16.26;100.00;102233.06;10102780;28;20085;-65
2022/05/07 16:35:57;;;;;;;7.55;1.88;;;;;;;16.23;100.00;102221.84;10085777;28;20492;-64
2022/05/07 16:40:53;;;;;;;8.98;1.75;;;;;;;16.36;100.00;102220.91;10085261;28;20146;-64
2022/05/07 16:45:50;;;;;;;6.75;1.30;;;;;;;16.34;100.00;102212.97;10088859;28;20057;-64
2022/05/07 16:50:46;;;;;;;8.18;3.95;;;;;;;16.47;100.00;102216.72;10081785;28;20047;-65
2022/05/07 16:55:42;;;;;;;4.70;2.00;;;;;;;16.57;100.00;102227.47;10078260;28;20133;-64
2022/05/07 17:00:39;;;;;;;4.15;1.55;;;;;;;17.11;100.00;102218.91;10080933;28;20158;-65
2022/05/07 17:05:35;;;;;;;5.15;1.55;;;;;;;17.80;98.86;102229.03;10097678;28;20145;-64
2022/05/07 17:10:32;;;;;;;5.68;2.10;;;;;;;18.02;97.63;102224.44;10096259;28;20551;-65
2022/05/07 17:15:29;;;;;;;6.65;2.08;;;;;;;18.01;98.93;102231.09;10090933;28;20086;-64
2022/05/07 17:20:26;;;;;;;8.40;2.60;;;;;;;18.59;99.14;102237.81;10107301;28;20756;-65
2022/05/07 17:25:22;;;;;;;6.38;2.53;;;;;;;18.79;98.86;102224.31;10083713;28;20151;-64
2022/05/07 17:30:19;;;;;;;7.32;3.53;;;;;;;19.20;98.43;102222.69;10094776;28;20047;-64
2022/05/07 17:35:15;;;;;;;7.85;3.78;;;;;;;19.52;96.99;102223.84;10089819;28;20118;-64
2022/05/07 17:40:12;;;;;;;9.10;3.90;;;;;;;18.97;100.00;102228.59;10105552;28;20109;-64
2022/05/07 17:45:09;;;;;;;9.75;4.18;;;;;;;18.55;100.00;102228.53;10109300;28;20094;-64
2022/05/07 17:50:05;;;;;;;4.50;2.38;;;;;;;18.03;95.92;102226.03;10098732;28;20055;-69
2022/05/07 17:55:02;;;;;;;4.15;1.67;;;;;;;17.52;88.64;102236.94;10084822;28;20046;-69
2022/05/07 17:59:59;;;;;;;5.03;1.75;;;;;;;17.06;88.86;102237.59;10067315;28;20097;-68
2022/05/07 18:04:56;;;;;;;4.80;1.70;;;;;;;16.83;91.22;102241.34;10071917;28;20057;-69
2022/05/07 18:09:53;;;;;;;7.22;1.88;;;;;;;16.52;94.46;102235.88;10067976;28;20496;-69
2022/05/07 18:14:49;;;;;;;6.57;2.10;;;;;;;16.31;94.84;102240.38;10077840;28;20136;-68
2022/05/07 18:19:46;;;;;;;4.13;1.60;;;;;;;16.04;91.31;102257.97;10082873;28;20074;-68
2022/05/07 18:24:43;;;;;;;5.72;1.70;;;;;;;15.91;93.73;102257.72;10089029;28;20048;-68
2022/05/07 18:29:40;;;;;;;6.45;1.60;;;;;;;15.76;96.98;102252.63;10093578;28;20087;-68
2022/05/07 18:34:36;;;;;;;6.60;1.85;;;;;;;15.69;99.75;102261.31;10090638;28;20074;-68
2022/05/07 18:44:49;;;;;;;9.00;2.50;;;;;;;15.46;100.00;102256.97;10082466;28;20050;-68
2022/05/07 18:49:46;;;;;;;7.90;2.47;;;;;;;15.33;100.00;102267.72;10080904;28;20162;-68
2022/05/07 18:54:43;;;;;;;8.70;3.88;;;;;;;15.30;100.00;102273.84;10082510;28;20043;-68
2022/05/07 18:59:39;;;;;;;15.52;8.32;;;;;;;15.12;100.00;102286.66;10082212;28;20120;-68
2022/05/07 19:04:36;;;;;;;10.52;4.50;;;;;;;15.05;100.00;102274.44;10081593;28;20070;-68
2022/05/07 19:09:33;;;;;;;7.55;3.15;;;;;;;14.89;100.00;102285.81;10082160;28;20120;-68
2022/05/07 19:14:30;;;;;;;7.63;3.03;;;;;;;14.76;100.00;102303.19;10087977;28;20458;-68
2022/05/07 19:19:26;;;;;;;14.82;4.40;;;;;;;14.59;100.00;102308.47;10089252;28;20171;-68
2022/05/07 19:24:24;;;;;;;10.07;5.10;;;;;;;14.50;100.00;102311.09;10093740;28;20116;-68
2022/05/07 19:29:25;;;;;;;16.52;5.97;;;;;;;14.38;100.00;102322.59;10077261;28;20113;-68
2022/05/07 19:34:21;;;;;;;15.52;7.88;;;;;;;14.21;100.00;102330.66;10074059;28;20051;-67
2022/05/07 19:39:18;;;;;;;16.52;8.30;;;;;;;14.00;100.00;102335.69;10068605;28;20106;-67
2022/05/07 19:44:15;;;;;;;19.75;8.55;;;;;;;13.95;100.00;102333.84;10079480;28;20427;-66
2022/05/07 19:49:12;;;;;;;16.52;8.80;;;;;;;13.76;100.00;102333.06;10069558;28;20507;-67
2022/05/07 19:54:08;;;;;;;17.17;9.27;;;;;;;13.72;100.00;102343.03;10078806;28;20098;-67
2022/05/07 19:59:06;;;;;;;17.58;8.82;;;;;;;13.58;100.00;102341.03;10069923;28;20730;-67
2022/05/07 20:04:03;;;;;;;21.73;10.07;;;;;;;13.42;100.00;102347.91;10083260;28;20075;-67
2022/05/07 20:09:00;;;;;;;18.65;8.48;;;;;;;13.26;100.00;102356.31;10093280;28;20051;-67
2022/05/07 20:13:58;;;;;;;17.50;8.70;;;;;;;13.16;100.00;102361.97;10104459;28;20535;-67
2022/05/07 20:18:55;;;;;;;15.98;6.13;;;;;;;13.02;100.00;102366.53;10079691;28;20113;-67
2022/05/07 20:23:52;;;;;;;13.68;4.10;;;;;;;12.56;100.00;102376.13;10072714;28;20149;-67
2022/05/07 20:28:49;;;;;;;14.20;3.60;;;;;;;12.54;100.00;102391.25;10094514;28;20519;-67
2022/05/07 20:33:45;;;;;;;12.13;3.20;;;;;;;12.44;100.00;102394.91;10107140;28;20054;-66
2022/05/07 20:38:42;;;;;;;14.82;3.85;;;;;;;12.24;100.00;102389.63;10092530;28;20083;-63
2022/05/07 20:49:00;;;;;;;13.07;3.42;;;;;;;11.89;100.00;102410.75;10089243;28;20167;-63
2022/05/07 20:54:06;;;;;;;;;;;;;;;11.78;100.00;102420.91;10094573;28;20141;-62
2022/05/07 20:59:04;;;;;;;15.10;2.70;;;;;;;11.48;100.00;102427.38;10098068;28;20417;-63
2022/05/07 21:04:07;;;;;;;16.95;2.83;;;;;;;11.30;100.00;102426.94;10072598;28;20083;-64
2022/05/07 21:09:05;;;;;;;16.73;3.00;;;;;;;11.31;100.00;102444.19;10099205;28;20151;-64
2022/05/07 21:14:02;;;;;;;18.00;2.63;;;;;;;10.98;100.00;102424.59;10103786;28;20407;-64
2022/05/07 21:19:00;;;;;;;15.77;2.85;;;;;;;11.04;100.00;102433.59;10096281;28;20074;-64
2022/05/07 21:24:00;;;;;;;20.33;3.63;;;;;;;10.92;100.00;102450.34;10090204;28;20414;-69
2022/05/07 21:28:56;;;;;;;16.38;3.03;;;;;;;10.94;100.00;102445.41;10080389;28;20399;-68
2022/05/07 21:33:54;;;;;;;14.52;2.70;;;;;;;10.76;100.00;102456.94;10078370;28;20150;-63
2022/05/07 21:38:51;;;;;;;13.10;2.75;;;;;;;10.61;100.00;102460.53;10058546;28;20141;-63
2022/05/07 21:43:47;;;;;;;20.90;3.55;;;;;;;10.63;100.00;102456.44;10065044;28;20550;-63
2022/05/07 21:48:44;;;;;;;17.02;2.70;;;;;;;10.62;100.00;102460.25;10087147;28;20063;-64
2022/05/07 21:53:40;;;;;;;18.77;3.53;;;;;;;10.43;100.00;102467.38;10097332;28;20074;-64
2022/05/07 21:58:39;;;;;;;18.05;3.53;;;;;;;10.33;100.00;102462.75;10094402;28;20085;-64
2022/05/07 22:03:36;;;;;;;18.38;3.10;;;;;;;10.22;100.00;102472.81;10102877;28;20078;-62
2022/05/07 22:08:33;;;;;;;18.52;2.67;;;;;;;10.24;100.00;102476.09;10082824;28;20449;-62
2022/05/07 22:13:29;;;;;;;21.10;3.70;;;;;;;10.16;100.00;102489.47;10097153;28;20134;-63
2022/05/07 22:18:26;;;;;;;19.85;3.08;;;;;;;9.85;100.00;102487.50;10078209;28;20679;-63
2022/05/07 22:23:22;;;;;;;19.90;3.33;;;;;;;9.88;100.00;102486.97;10101775;28;20138;-63
2022/05/07 22:28:19;;;;;;;14.40;2.72;;;;;;;9.87;100.00;102501.72;10097760;28;20070;-63
2022/05/07 22:33:15;;;;;;;16.60;3.55;;;;;;;9.71;100.00;102499.22;10106951;28;20229;-63
2022/05/07 22:38:11;;;;;;;20.38;3.72;;;;;;;9.65;100.00;102506.56;10073103;28;20082;-63
2022/05/07 22:43:08;;;;;;;13.73;2.53;;;;;;;9.54;100.00;102502.16;10110893;28;20547;-63
2022/05/07 22:48:05;;;;;;;16.08;2.90;;;;;;;9.55;100.00;102512.00;10083714;28;20489;-63
2022/05/07 22:53:01;;;;;;;19.20;3.33;;;;;;;9.35;100.00;102519.03;10109362;28;20043;-63
2022/05/07 22:57:58;;;;;;;22.38;3.25;;;;;;;9.28;100.00;102518.41;10081047;28;20066;-63
2022/05/07 23:02:54;;;;;;;13.77;2.30;;;;;;;9.26;100.00;102524.16;10075444;28;20418;-63
2022/05/07 23:07:51;;;;;;;16.70;2.60;;;;;;;9.26;100.00;102526.88;10075264;28;20142;-63
2022/05/07 23:12:47;;;;;;;10.45;2.58;;;;;;;9.22;100.00;102524.94;10109717;28;20631;-63
2022/05/07 23:17:44;;;;;;;21.17;3.55;;;;;;;9.02;100.00;102537.38;10099942;28;20470;-63
2022/05/07 23:22:40;;;;;;;11.93;2.35;;;;;;;9.04;100.00;102534.38;10100418;28;20067;-63
2022/05/07 23:27:37;;;;;;;14.07;2.72;;;;;;;8.99;100.00;102537.09;10077926;28;20539;-62
2022/05/07 23:32:35;;;;;;;13.18;2.20;;;;;;;8.92;100.00;102540.03;10083633;28;20082;-63
2022/05/07 23:37:31;;;;;;;18.17;2.67;;;;;;;8.86;100.00;102538.34;10074954;28;20152;-63